createdAt,value
2023-02-05T00:00:39.356Z,103796.72
2023-02-05T00:03:05.935Z,103803.88
2023-02-05T00:05:32.824Z,103805.69
2023-02-05T00:07:59.534Z,103787.03
2023-02-05T00:10:26.076Z,103786.94
2023-02-05T00:12:52.637Z,103784.28
2023-02-05T00:15:19.159Z,103771.81
2023-02-05T00:17:45.683Z,103759.31
2023-02-05T00:20:12.174Z,103750.41
2023-02-05T00:22:38.702Z,103750.41
2023-02-05T00:25:05.841Z,103754.81
2023-02-05T00:27:33.750Z,103766.38
2023-02-05T00:30:00.306Z,103756.63
2023-02-05T00:32:26.814Z,103757.50
2023-02-05T00:34:53.302Z,103763.72
2023-02-05T00:37:20.019Z,103772.59
2023-02-05T00:39:46.540Z,103766.38
2023-02-05T00:42:13.024Z,103758.34
2023-02-05T00:44:39.522Z,103750.22
2023-02-05T00:47:06.017Z,103764.47
2023-02-05T00:49:32.596Z,103771.56
2023-02-05T00:51:59.224Z,103765.31
2023-02-05T00:54:25.776Z,103758.16
2023-02-05T00:56:52.299Z,103791.19
2023-02-05T00:59:18.803Z,103782.22
2023-02-05T01:01:45.463Z,103775.91
2023-02-05T01:04:12.042Z,103778.66
2023-02-05T01:06:38.529Z,103784.03
2023-02-05T01:09:05.121Z,103775.13
2023-02-05T01:11:31.643Z,103771.56
2023-02-05T01:13:58.250Z,103777.84
2023-02-05T01:16:24.824Z,103785.03
2023-02-05T01:18:52.701Z,103774.31
2023-02-05T01:21:19.249Z,103764.56
2023-02-05T01:23:45.770Z,103761.88
2023-02-05T01:26:12.293Z,103755.66
2023-02-05T01:28:38.823Z,103754.81
2023-02-05T01:31:05.572Z,103764.56
2023-02-05T01:33:32.138Z,103778.91
2023-02-05T01:35:58.679Z,103778.03
2023-02-05T01:38:25.329Z,103779.88
2023-02-05T01:40:52.002Z,103787.91
2023-02-05T01:43:19.191Z,103792.38
2023-02-05T01:45:52.114Z,103795.06
2023-02-05T01:48:22.593Z,103782.63
2023-02-05T01:50:54.466Z,103783.50
2023-02-05T01:53:33.607Z,103777.31
2023-02-05T01:56:17.440Z,103769.28
2023-02-05T01:59:11.279Z,103755.03
2023-02-05T02:01:39.391Z,103773.69
2023-02-05T02:04:06.235Z,103762.19
2023-02-05T02:06:34.875Z,103753.31
2023-02-05T02:09:02.834Z,103751.50
2023-02-05T02:11:32.266Z,103753.31
2023-02-05T02:14:01.149Z,103748.00
2023-02-05T02:16:28.820Z,103744.47
2023-02-05T02:18:55.588Z,103731.06
2023-02-05T02:21:37.589Z,103729.34
2023-02-05T02:24:15.877Z,103724.94
2023-02-05T02:27:09.790Z,103724.00
2023-02-05T02:29:43.650Z,103718.63
2023-02-05T02:32:18.634Z,103698.16
2023-02-05T02:34:49.688Z,103699.97
2023-02-05T02:37:25.469Z,103709.78
2023-02-05T02:40:00.435Z,103700.88
2023-02-05T02:42:55.763Z,103705.38
2023-02-05T02:45:25.706Z,103698.22
2023-02-05T02:47:55.897Z,103702.69
2023-02-05T02:50:32.834Z,103709.00
2023-02-05T02:53:19.170Z,103701.94
2023-02-05T02:55:49.299Z,103709.00
2023-02-05T02:58:27.627Z,103709.09
2023-02-05T03:00:55.246Z,103705.53
2023-02-05T03:03:26.466Z,103701.94
2023-02-05T03:05:57.010Z,103699.31
2023-02-05T03:08:31.017Z,103710.00
2023-02-05T03:11:12.618Z,103696.72
2023-02-05T03:13:39.633Z,103706.41
2023-02-05T03:16:06.856Z,103709.09
2023-02-05T03:18:33.557Z,103712.69
2023-02-05T03:21:12.682Z,103710.00
2023-02-05T03:23:39.602Z,103718.84
2023-02-05T03:26:06.175Z,103722.50
2023-02-05T03:28:32.705Z,103724.22
2023-02-05T03:31:31.422Z,103721.59
2023-02-05T03:34:12.600Z,103717.13
2023-02-05T03:36:45.168Z,103720.66
2023-02-05T03:39:30.543Z,103711.78
2023-02-05T03:42:05.338Z,103710.88
2023-02-05T03:45:03.772Z,103717.19
2023-02-05T03:47:51.537Z,103713.56
2023-02-05T03:50:36.026Z,103715.47
2023-02-05T03:53:11.647Z,103715.38
2023-02-05T03:55:45.049Z,103716.22
2023-02-05T03:58:37.730Z,103722.53
2023-02-05T04:01:04.601Z,103721.69
2023-02-05T04:03:31.144Z,103722.63
2023-02-05T04:05:57.703Z,103720.81
2023-02-05T04:08:24.259Z,103726.25
2023-02-05T04:10:50.791Z,103720.00
2023-02-05T04:13:17.289Z,103714.66
2023-02-05T04:15:43.801Z,103713.78
2023-02-05T04:18:10.338Z,103706.63
2023-02-05T04:20:36.843Z,103704.88
2023-02-05T04:23:03.346Z,103702.22
2023-02-05T04:25:29.927Z,103712.91
2023-02-05T04:27:56.519Z,103712.06
2023-02-05T04:30:23.085Z,103711.09
2023-02-05T04:32:49.606Z,103711.09
2023-02-05T04:35:16.135Z,103699.53
2023-02-05T04:37:42.602Z,103712.91
2023-02-05T04:40:09.886Z,103713.88
2023-02-05T04:42:36.429Z,103709.38
2023-02-05T04:45:05.733Z,103718.28
2023-02-05T04:47:33.163Z,103722.75
2023-02-05T04:49:59.784Z,103723.63
2023-02-05T04:52:26.306Z,103730.72
2023-02-05T04:54:52.782Z,103732.47
2023-02-05T04:57:19.277Z,103737.81
2023-02-05T04:59:45.749Z,103741.28
2023-02-05T05:02:12.270Z,103734.19
2023-02-05T05:04:38.853Z,103749.41
2023-02-05T05:07:05.376Z,103752.94
2023-02-05T05:09:31.893Z,103761.91
2023-02-05T05:11:58.466Z,103757.44
2023-02-05T05:14:24.965Z,103765.47
2023-02-05T05:16:51.429Z,103762.84
2023-02-05T05:19:17.918Z,103762.84
2023-02-05T05:21:44.474Z,103766.47
2023-02-05T05:24:11.054Z,103772.69
2023-02-05T05:26:39.225Z,103776.31
2023-02-05T05:29:06.242Z,103788.84
2023-02-05T05:31:32.787Z,103806.72
2023-02-05T05:33:59.376Z,103804.09
2023-02-05T05:36:25.926Z,103809.44
2023-02-05T05:38:52.422Z,103813.06
2023-02-05T05:41:43.936Z,103811.41
2023-02-05T05:44:11.281Z,103817.56
2023-02-05T05:46:37.838Z,103818.50
2023-02-05T05:49:04.378Z,103807.84
2023-02-05T05:51:32.687Z,103821.22
2023-02-05T05:53:59.275Z,103815.97
2023-02-05T05:56:25.766Z,103824.00
2023-02-05T05:58:52.566Z,103824.94
2023-02-05T06:01:21.979Z,103837.47
2023-02-05T06:03:48.798Z,103832.09
2023-02-05T06:06:15.443Z,103833.91
2023-02-05T06:08:41.976Z,103836.63
2023-02-05T06:11:08.639Z,103829.56
2023-02-05T06:13:35.490Z,103833.09
2023-02-05T06:16:02.346Z,103834.03
2023-02-05T06:18:29.226Z,103825.16
2023-02-05T06:20:55.802Z,103835.84
2023-02-05T06:23:22.269Z,103843.88
2023-02-05T06:25:48.949Z,103849.28
2023-02-05T06:28:15.492Z,103854.59
2023-02-05T06:30:42.031Z,103868.91
2023-02-05T06:33:08.563Z,103866.22
2023-02-05T06:35:35.367Z,103873.38
2023-02-05T06:38:02.197Z,103879.69
2023-02-05T06:40:28.834Z,103877.00
2023-02-05T06:42:55.697Z,103882.34
2023-02-05T06:45:22.726Z,103893.16
2023-02-05T06:47:50.042Z,103890.47
2023-02-05T06:50:16.574Z,103900.28
2023-02-05T06:52:43.149Z,103900.34
2023-02-05T06:55:09.685Z,103903.91
2023-02-05T06:57:36.542Z,103895.88
2023-02-05T07:00:07.127Z,103912.88
2023-02-05T07:02:33.695Z,103920.03
2023-02-05T07:05:00.271Z,103917.38
2023-02-05T07:07:26.903Z,103925.31
2023-02-05T07:09:53.475Z,103933.41
2023-02-05T07:12:20.140Z,103952.06
2023-02-05T07:14:46.790Z,103952.06
2023-02-05T07:17:13.453Z,103948.53
2023-02-05T07:19:39.982Z,103954.75
2023-02-05T07:22:06.545Z,103960.97
2023-02-05T07:24:33.054Z,103970.81
2023-02-05T07:26:59.596Z,103963.66
2023-02-05T07:29:27.143Z,103969.00
2023-02-05T07:31:53.717Z,103976.16
2023-02-05T07:34:20.211Z,103979.72
2023-02-05T07:36:50.826Z,103994.13
2023-02-05T07:41:44.453Z,104004.66
2023-02-05T07:44:11.046Z,104003.88
2023-02-05T07:46:37.594Z,104009.09
2023-02-05T07:49:04.135Z,104011.84
2023-02-05T07:51:30.736Z,104019.88
2023-02-05T07:53:57.233Z,104018.06
2023-02-05T07:56:25.946Z,104023.41
2023-02-05T07:58:52.456Z,104025.16
2023-02-05T08:01:19.046Z,104027.84
2023-02-05T08:03:45.614Z,104027.78
2023-02-05T08:06:14.972Z,104026.91
2023-02-05T08:08:41.541Z,104018.78
2023-02-05T08:11:08.507Z,104026.81
2023-02-05T08:13:35.130Z,104021.47
2023-02-05T08:16:05.669Z,104025.06
2023-02-05T08:18:32.258Z,104024.16
2023-02-05T08:20:58.888Z,104024.09
2023-02-05T08:23:25.776Z,104023.25
2023-02-05T08:25:57.378Z,104028.44
2023-02-05T08:28:25.989Z,104031.13
2023-02-05T08:30:52.607Z,104035.59
2023-02-05T08:33:19.152Z,104023.97
2023-02-05T08:35:45.755Z,104033.78
2023-02-05T08:38:12.329Z,104027.53
2023-02-05T08:40:39.016Z,104032.81
2023-02-05T08:43:05.778Z,104046.19
2023-02-05T08:45:32.573Z,104044.38
2023-02-05T08:47:59.403Z,104045.25
2023-02-05T08:50:26.009Z,104063.94
2023-02-05T08:52:52.601Z,104064.72
2023-02-05T08:55:19.332Z,104062.00
2023-02-05T08:57:46.298Z,104068.97
2023-02-05T09:00:14.976Z,104078.63
2023-02-05T09:02:43.238Z,104081.16
2023-02-05T09:05:10.013Z,104094.50
2023-02-05T09:07:38.923Z,104087.31
2023-02-05T09:10:08.168Z,104089.91
2023-02-05T09:12:34.687Z,104094.41
2023-02-05T09:15:01.210Z,104081.88
2023-02-05T09:17:27.819Z,104095.28
2023-02-05T09:19:54.884Z,104099.78
2023-02-05T09:22:21.382Z,104090.00
2023-02-05T09:24:47.922Z,104088.19
2023-02-05T09:27:15.022Z,104083.78
2023-02-05T09:29:42.081Z,104086.56
2023-02-05T09:32:08.881Z,104091.84
2023-02-05T09:34:35.395Z,104096.34
2023-02-05T09:37:01.971Z,104074.91
2023-02-05T09:40:13.097Z,104088.31
2023-02-05T09:42:36.925Z,104073.13
2023-02-05T09:45:06.373Z,104078.53
2023-02-05T09:47:49.854Z,104087.38
2023-02-05T09:50:16.348Z,104079.28
2023-02-05T09:52:50.982Z,104069.53
2023-02-05T09:55:42.374Z,104066.84
2023-02-05T09:58:48.982Z,104073.00
2023-02-05T10:01:21.557Z,104080.69
2023-02-05T10:03:56.203Z,104086.75
2023-02-05T10:06:35.831Z,104098.09
2023-02-05T10:09:24.643Z,104104.06
2023-02-05T10:12:13.078Z,104095.75
2023-02-05T10:14:58.097Z,104082.97
2023-02-05T10:17:49.596Z,104080.06
2023-02-05T10:20:31.155Z,104075.44
2023-02-05T10:23:15.777Z,104086.91
2023-02-05T10:25:50.163Z,104102.81
2023-02-05T10:28:29.442Z,104084.88
2023-02-05T10:31:07.257Z,104093.72
2023-02-05T10:33:56.828Z,104090.09
2023-02-05T10:36:26.712Z,104074.81
2023-02-05T10:38:56.746Z,104086.47
2023-02-05T10:41:26.016Z,104088.22
2023-02-05T10:44:03.271Z,104099.81
2023-02-05T10:46:36.960Z,104091.75
2023-02-05T10:49:33.495Z,104108.72
2023-02-05T10:52:00.115Z,104118.44
2023-02-05T10:54:29.578Z,104121.97
2023-02-05T10:56:58.228Z,104127.31
2023-02-05T10:59:28.026Z,104134.44
2023-02-05T11:01:57.683Z,104138.94
2023-02-05T11:05:10.041Z,104129.97
2023-02-05T11:07:42.076Z,104137.88
2023-02-05T11:10:30.146Z,104125.41
2023-02-05T11:13:04.954Z,104124.53
2023-02-05T11:15:33.580Z,104121.00
2023-02-05T11:18:04.255Z,104133.41
2023-02-05T11:20:38.486Z,104130.75
2023-02-05T11:23:21.143Z,104125.28
2023-02-05T11:26:07.252Z,104120.78
2023-02-05T11:28:36.505Z,104119.78
2023-02-05T11:31:21.598Z,104125.06
2023-02-05T11:33:48.848Z,104125.88
2023-02-05T11:36:21.382Z,104115.06
2023-02-05T11:38:57.154Z,104107.81
2023-02-05T11:41:48.071Z,104112.19
2023-02-05T11:44:20.482Z,104095.94
2023-02-05T11:46:47.947Z,104102.09
2023-02-05T11:49:22.552Z,104103.78
2023-02-05T11:51:52.989Z,104117.06
2023-02-05T11:54:29.659Z,104116.03
2023-02-05T11:57:08.142Z,104123.94
2023-02-05T11:59:35.833Z,104123.00
2023-02-05T12:02:24.188Z,104129.25
2023-02-05T12:04:55.091Z,104139.81
2023-02-05T12:07:24.802Z,104135.28
2023-02-05T12:09:55.670Z,104122.63
2023-02-05T12:12:39.460Z,104125.22
2023-02-05T12:15:14.851Z,104131.44
2023-02-05T12:18:13.704Z,104141.22
2023-02-05T12:20:50.593Z,104130.38
2023-02-05T12:23:23.543Z,104142.81
2023-02-05T12:25:50.030Z,104138.28
2023-02-05T12:28:44.446Z,104140.00
2023-02-05T12:31:23.380Z,104144.44
2023-02-05T12:34:06.405Z,104131.00
2023-02-05T12:36:35.844Z,104136.31
2023-02-05T12:39:30.273Z,104144.44
2023-02-05T12:42:15.102Z,104147.91
2023-02-05T12:45:03.822Z,104140.75
2023-02-05T12:47:48.337Z,104138.91
2023-02-05T12:50:42.757Z,104128.19
2023-02-05T12:53:30.053Z,104131.75
2023-02-05T12:56:28.284Z,104128.13
2023-02-05T12:59:01.553Z,104138.78
2023-02-05T13:01:58.052Z,104136.09
2023-02-05T13:04:30.021Z,104138.69
2023-02-05T13:07:11.671Z,104143.16
2023-02-05T13:09:57.084Z,104126.09
2023-02-05T13:12:28.712Z,104139.38
2023-02-05T13:15:08.193Z,104144.66
2023-02-05T13:17:40.419Z,104151.72
2023-02-05T13:20:56.352Z,104149.88
2023-02-05T13:23:43.954Z,104142.63
2023-02-05T13:26:24.537Z,104147.06
2023-02-05T13:28:56.960Z,104150.53
2023-02-05T13:31:30.253Z,104154.94
2023-02-05T13:34:03.067Z,104164.78
2023-02-05T13:36:52.409Z,104178.19
2023-02-05T13:39:33.836Z,104165.56
2023-02-05T13:42:39.331Z,104176.28
2023-02-05T13:45:52.529Z,104169.09
2023-02-05T13:48:49.823Z,104175.34
2023-02-05T13:51:39.180Z,104164.53
2023-02-05T13:54:27.760Z,104181.56
2023-02-05T13:57:49.301Z,104189.56
2023-02-05T14:00:16.875Z,104196.69
2023-02-05T14:02:48.063Z,104195.72
2023-02-05T14:05:16.594Z,104198.41
2023-02-05T14:07:50.813Z,104200.22
2023-02-05T14:10:29.450Z,104210.09
2023-02-05T14:13:13.121Z,104206.53
2023-02-05T14:15:42.734Z,104206.53
2023-02-05T14:18:40.567Z,104196.75
2023-02-05T14:21:32.861Z,104211.91
2023-02-05T14:24:02.714Z,104207.41
2023-02-05T14:26:48.149Z,104205.69
2023-02-05T14:29:42.752Z,104203.94
2023-02-05T14:32:33.335Z,104196.81
2023-02-05T14:35:32.492Z,104194.28
2023-02-05T14:38:14.812Z,104201.41
2023-02-05T14:40:41.751Z,104198.78
2023-02-05T14:43:38.485Z,104197.13
2023-02-05T14:46:19.686Z,104197.03
2023-02-05T14:48:47.600Z,104194.44
2023-02-05T14:51:25.804Z,104186.50
2023-02-05T14:54:00.145Z,104193.69
2023-02-05T14:56:40.452Z,104201.84
2023-02-05T14:59:31.905Z,104204.66
2023-02-05T15:01:59.747Z,104204.56
2023-02-05T15:04:41.757Z,104216.25
2023-02-05T15:07:20.334Z,104220.81
2023-02-05T15:09:53.418Z,104227.13
2023-02-05T15:12:53.724Z,104211.16
2023-02-05T15:15:34.297Z,104212.19
2023-02-05T15:18:05.780Z,104219.38
2023-02-05T15:20:36.451Z,104226.63
2023-02-05T15:23:29.150Z,104225.00
2023-02-05T15:26:01.833Z,104223.28
2023-02-05T15:28:41.741Z,104223.31
2023-02-05T15:31:16.953Z,104227.03
2023-02-05T15:33:54.440Z,104239.72
2023-02-05T15:36:40.321Z,104234.44
2023-02-05T15:39:24.129Z,104246.22
2023-02-05T15:41:55.675Z,104255.16
2023-02-05T15:44:34.605Z,104250.00
2023-02-05T15:47:05.369Z,104260.75
2023-02-05T15:49:36.671Z,104259.97
2023-02-05T15:52:04.522Z,104264.50
2023-02-05T15:54:34.043Z,104272.63
2023-02-05T15:57:03.072Z,104270.88
2023-02-05T15:59:31.598Z,104282.53
2023-02-05T16:02:09.028Z,104291.66
2023-02-05T16:04:38.800Z,104293.47
2023-02-05T16:07:23.410Z,104293.66
2023-02-05T16:09:54.021Z,104291.84
2023-02-05T16:12:20.756Z,104299.13
2023-02-05T16:14:57.712Z,104316.28
2023-02-05T16:17:45.681Z,104310.00
2023-02-05T16:20:22.360Z,104319.88
2023-02-05T16:22:52.755Z,104317.34
2023-02-05T16:25:19.197Z,104325.38
2023-02-05T16:27:50.820Z,104325.50
2023-02-05T16:30:23.389Z,104322.88
2023-02-05T16:32:55.824Z,104314.97
2023-02-05T16:35:39.521Z,104320.38
2023-02-05T16:38:10.958Z,104321.25
2023-02-05T16:40:43.216Z,104321.25
2023-02-05T16:43:24.897Z,104313.28
2023-02-05T16:46:06.739Z,104308.78
2023-02-05T16:48:49.854Z,104316.03
2023-02-05T16:51:28.530Z,104322.25
2023-02-05T16:53:55.045Z,104333.84
2023-02-05T16:56:25.193Z,104333.03
2023-02-05T16:58:55.744Z,104333.03
2023-02-05T17:01:37.016Z,104342.09
2023-02-05T17:04:03.797Z,104338.47
2023-02-05T17:06:35.413Z,104348.44
2023-02-05T17:09:04.926Z,104348.44
2023-02-05T17:11:37.695Z,104351.19
2023-02-05T17:14:32.675Z,104340.72
2023-02-05T17:17:04.187Z,104350.44
2023-02-05T17:19:33.216Z,104351.38
2023-02-05T17:22:14.791Z,104343.50
2023-02-05T17:24:48.800Z,104357.81
2023-02-05T17:27:27.245Z,104371.22
2023-02-05T17:29:54.534Z,104381.03
2023-02-05T17:32:21.965Z,104384.66
2023-02-05T17:34:48.712Z,104379.38
2023-02-05T17:37:15.376Z,104377.63
2023-02-05T17:39:42.576Z,104382.09
2023-02-05T17:42:25.444Z,104382.16
2023-02-05T17:44:53.166Z,104380.34
2023-02-05T17:47:20.123Z,104376.88
2023-02-05T17:49:46.740Z,104384.91
2023-02-05T17:52:15.376Z,104391.19
2023-02-05T17:54:43.133Z,104393.81
2023-02-05T17:57:18.882Z,104389.44
2023-02-05T17:59:46.429Z,104387.69
2023-02-05T18:02:14.035Z,104389.50
2023-02-05T18:04:41.545Z,104378.78
2023-02-05T18:07:33.570Z,104377.16
2023-02-05T18:10:00.290Z,104385.13
2023-02-05T18:12:26.994Z,104386.06
2023-02-05T18:14:54.201Z,104388.75
2023-02-05T18:17:20.789Z,104376.22
2023-02-05T18:19:47.321Z,104384.25
2023-02-05T18:22:14.235Z,104382.47
2023-02-05T18:24:40.743Z,104387.75
2023-02-05T18:27:12.150Z,104388.66
2023-02-05T18:29:39.407Z,104391.38
2023-02-05T18:32:06.629Z,104380.72
2023-02-05T18:34:33.233Z,104379.84
2023-02-05T18:37:00.031Z,104376.22
2023-02-05T18:39:28.583Z,104384.34
2023-02-05T18:41:56.234Z,104378.06
2023-02-05T18:44:23.350Z,104386.19
2023-02-05T18:46:49.968Z,104400.53
2023-02-05T18:49:16.850Z,104408.59
2023-02-05T18:51:43.708Z,104410.41
2023-02-05T18:54:10.539Z,104413.16
2023-02-05T18:56:37.292Z,104417.66
2023-02-05T18:59:06.852Z,104409.66
2023-02-05T19:01:38.679Z,104407.91
2023-02-05T19:04:15.923Z,104408.94
2023-02-05T19:06:44.458Z,104416.91
2023-02-05T19:09:11.468Z,104413.38
2023-02-05T19:11:41.306Z,104409.84
2023-02-05T19:14:11.451Z,104419.75
2023-02-05T19:16:39.711Z,104428.72
2023-02-05T19:19:06.656Z,104435.88
2023-02-05T19:21:33.695Z,104438.53
2023-02-05T19:24:07.085Z,104437.75
2023-02-05T19:26:35.481Z,104449.31
2023-02-05T19:29:05.121Z,104446.72
2023-02-05T19:31:33.645Z,104442.22
2023-02-05T19:34:01.373Z,104437.78
2023-02-05T19:36:28.454Z,104438.69
2023-02-05T19:38:54.974Z,104451.28
2023-02-05T19:41:24.373Z,104467.34
2023-02-05T19:43:56.886Z,104467.38
2023-02-05T19:46:26.848Z,104460.25
2023-02-05T19:48:55.546Z,104453.13
2023-02-05T19:51:22.352Z,104454.06
2023-02-05T19:53:48.977Z,104444.28
2023-02-05T19:56:22.181Z,104449.69
2023-02-05T19:58:51.465Z,104439.91
2023-02-05T20:01:19.635Z,104440.84
2023-02-05T20:03:46.286Z,104440.84
2023-02-05T20:06:15.969Z,104438.19
2023-02-05T20:08:45.295Z,104441.81
2023-02-05T20:11:12.684Z,104450.72
2023-02-05T20:13:39.887Z,104449.84
2023-02-05T20:16:13.175Z,104449.06
2023-02-05T20:18:41.146Z,104449.06
2023-02-05T20:21:12.682Z,104455.31
2023-02-05T20:23:39.702Z,104453.56
2023-02-05T20:26:07.823Z,104458.94
2023-02-05T20:28:57.849Z,104464.34
2023-02-05T20:31:35.245Z,104460.81
2023-02-05T20:34:06.905Z,104451.91
2023-02-05T20:36:34.929Z,104451.94
2023-02-05T20:39:05.075Z,104462.66
2023-02-05T20:41:31.959Z,104463.59
2023-02-05T20:43:58.905Z,104466.25
2023-02-05T20:46:26.439Z,104469.88
2023-02-05T20:48:52.948Z,104464.56
2023-02-05T20:51:22.205Z,104472.66
2023-02-05T20:53:49.424Z,104471.72
2023-02-05T20:56:20.124Z,104475.34
2023-02-05T20:58:47.369Z,104475.34
2023-02-05T21:01:20.623Z,104467.41
2023-02-05T21:03:50.278Z,104469.09
2023-02-05T21:06:18.707Z,104474.50
2023-02-05T21:08:46.906Z,104470.94
2023-02-05T21:11:15.099Z,104478.13
2023-02-05T21:13:43.079Z,104470.16
2023-02-05T21:16:11.807Z,104472.81
2023-02-05T21:18:40.319Z,104471.97
2023-02-05T21:21:08.434Z,104478.22
2023-02-05T21:23:35.557Z,104467.56
2023-02-05T21:26:02.355Z,104468.50
2023-02-05T21:28:29.280Z,104465.84
2023-02-05T21:31:07.769Z,104463.19
2023-02-05T21:33:35.287Z,104459.59
2023-02-05T21:36:10.418Z,104468.53
2023-02-05T21:38:38.699Z,104472.16
2023-02-05T21:41:13.574Z,104476.63
2023-02-05T21:43:40.756Z,104479.31
2023-02-05T21:46:10.131Z,104488.31
2023-02-05T21:48:36.698Z,104486.50
2023-02-05T21:51:08.717Z,104489.31
2023-02-05T21:53:35.431Z,104491.06
2023-02-05T21:56:03.579Z,104491.06
2023-02-05T21:58:34.320Z,104483.09
2023-02-05T22:01:13.146Z,104490.22
2023-02-05T22:03:41.246Z,104486.69
2023-02-05T22:06:08.806Z,104491.16
2023-02-05T22:08:37.750Z,104498.31
2023-02-05T22:11:06.445Z,104509.03
2023-02-05T22:13:35.098Z,104509.97
2023-02-05T22:16:13.009Z,104509.13
2023-02-05T22:18:39.788Z,104516.19
2023-02-05T22:21:23.636Z,104511.81
2023-02-05T22:23:52.255Z,104510.91
2023-02-05T22:26:24.731Z,104510.91
2023-02-05T22:28:51.448Z,104503.78
2023-02-05T22:31:20.033Z,104509.13
2023-02-05T22:33:48.569Z,104506.44
2023-02-05T22:36:16.721Z,104510.00
2023-02-05T22:38:43.743Z,104513.56
2023-02-05T22:41:12.668Z,104518.94
2023-02-05T22:43:39.907Z,104522.50
2023-02-05T22:46:09.614Z,104512.72
2023-02-05T22:48:37.796Z,104510.94
2023-02-05T22:51:09.870Z,104499.34
2023-02-05T22:53:37.068Z,104503.84
2023-02-05T22:56:06.538Z,104497.59
2023-02-05T22:58:33.685Z,104495.81
2023-02-05T23:01:11.128Z,104491.41
2023-02-05T23:03:38.482Z,104501.22
2023-02-05T23:06:13.636Z,104505.72
2023-02-05T23:08:40.899Z,104494.09
2023-02-05T23:11:10.573Z,104502.19
2023-02-05T23:13:37.095Z,104497.72
2023-02-05T23:16:15.338Z,104493.31
2023-02-05T23:18:42.617Z,104498.63
2023-02-05T23:21:18.049Z,104501.31
2023-02-05T23:23:44.919Z,104501.31
2023-02-05T23:26:18.050Z,104502.25
2023-02-05T23:28:45.114Z,104505.72
2023-02-05T23:31:11.772Z,104496.78
2023-02-05T23:33:38.593Z,104503.94
2023-02-05T23:36:06.823Z,104506.56
2023-02-05T23:38:34.020Z,104497.59
2023-02-05T23:41:01.020Z,104488.72
2023-02-05T23:43:27.986Z,104485.97
2023-02-05T23:45:54.979Z,104481.56
2023-02-05T23:48:21.584Z,104488.66
2023-02-05T23:50:54.620Z,104486.91
2023-02-05T23:53:21.540Z,104493.13
2023-02-05T23:55:49.746Z,104488.66
2023-02-05T23:58:17.530Z,104483.34
